Buffalo, WY (82834)

4:12 PM MDT on March 23, 2017 (GMT -0600)
Buffalo | | Change Station

Elev 4708 ft 44.34 °N, 106.70 °W | Updated 7 seconds ago

Light Rain
Light Rain
39.2 °F
Feels Like 36 °F
N
4.5
Wind Variable Wind from NNE
Gusts 7.4 mph

Today
High -- | Low -- °F
--% Chance of Precip.
Yesterday
High -- | Low -- °F
Precip. -- in
Pressure 29.83 in
Visibility 6.0 miles
Clouds Scattered Clouds 700 ft
Overcast 2000 ft
Windchill 36 °F
Dew Point 39 °F
Humidity 99%
Rainfall 0.56 in
Snow Depth Not available.
7:03 AM 7:23 PM
Waning Crescent, 20% visible
METAR KBYG 232153Z AUTO 35012G22KT 6SM -RA SCT007 OVC020 04/02 A2985 RMK AO2 SLP102 P0005 T00440017
Pressure 29.83 in
Visibility 6.0 miles
Clouds Scattered Clouds 700 ft
Overcast 2000 ft
Windchill 36 °F
Dew Point 39 °F
Humidity 99%
Rainfall 0.56 in
Snow Depth Not available.
7:03 AM 7:23 PM
Waning Crescent, 20% visible
METAR KBYG 232153Z AUTO 35012G22KT 6SM -RA SCT007 OVC020 04/02 A2985 RMK AO2 SLP102 P0005 T00440017

Get Severe Weather Alerts

Thanks for signing up!

Be on the lookout for a verification email in your inbox.

You'll start receiving the daily forecast at 8 AM.

×

10-Day Weather Forecast

Almanac

Astronomy

Mar. 23, 2017 Rise Set
Actual Time
Civil Twilight
Nautical Twilight
Astronomical Twilight
Moon
Length of Visible Light
Length of Day
Tomorrow will be .
, % of the Moon is Illuminated

Today's Extremes

State Highs State Lows

Community

WunderPhotos

Upload Photos

1,962,540 photos uploaded!

WunderBlog® & News

Nearby

Air Quality

  Air Quality AQ Index Pollutant
Not available.

Snow Depth

Station Depth Elevation

Earthquake Activity

City Distance Mag. Time & Date
Minimum magnitude displayed is 2.5.

Earthquake Activity

City Distance Mag. Time & Date
Minimum magnitude displayed is 2.5.

Coastal Water Temperatures

Place Temperature

Stations

Nearby Weather Stations

Station Location Temp. Windchill Dew Point Humidity Wind Precip. Elev Updated Type
                   

Watches & Warnings

There are currently no watches in effect.